sensor_id;sensor_type;location;lat;lon;timestamp;temperature;humidity
70456;DHT22;57916;51.996;5.180;2023-04-29T00:01:15;15.10;69.70
70456;DHT22;57916;51.996;5.180;2023-04-29T00:03:42;15.10;69.70
70456;DHT22;57916;51.996;5.180;2023-04-29T00:06:10;15.10;69.80
70456;DHT22;57916;51.996;5.180;2023-04-29T00:08:37;15.10;69.90
70456;DHT22;57916;51.996;5.180;2023-04-29T00:11:04;15.10;70.00
70456;DHT22;57916;51.996;5.180;2023-04-29T00:13:31;15.00;70.00
70456;DHT22;57916;51.996;5.180;2023-04-29T00:15:58;15.00;70.20
70456;DHT22;57916;51.996;5.180;2023-04-29T00:18:25;15.00;70.40
70456;DHT22;57916;51.996;5.180;2023-04-29T00:20:52;15.00;70.50
70456;DHT22;57916;51.996;5.180;2023-04-29T00:23:19;15.00;70.50
70456;DHT22;57916;51.996;5.180;2023-04-29T00:25:46;15.00;70.60
70456;DHT22;57916;51.996;5.180;2023-04-29T00:28:13;15.00;70.60
70456;DHT22;57916;51.996;5.180;2023-04-29T00:30:40;15.10;70.70
70456;DHT22;57916;51.996;5.180;2023-04-29T00:33:07;15.10;70.60
70456;DHT22;57916;51.996;5.180;2023-04-29T00:35:34;15.10;70.70
70456;DHT22;57916;51.996;5.180;2023-04-29T00:38:01;15.00;70.50
70456;DHT22;57916;51.996;5.180;2023-04-29T00:40:28;15.00;70.40
70456;DHT22;57916;51.996;5.180;2023-04-29T00:42:55;15.00;70.30
70456;DHT22;57916;51.996;5.180;2023-04-29T00:45:22;15.00;70.40
70456;DHT22;57916;51.996;5.180;2023-04-29T00:47:50;14.90;70.20
70456;DHT22;57916;51.996;5.180;2023-04-29T00:50:17;14.90;70.30
70456;DHT22;57916;51.996;5.180;2023-04-29T00:52:44;14.90;70.40
70456;DHT22;57916;51.996;5.180;2023-04-29T00:55:12;15.00;70.50
70456;DHT22;57916;51.996;5.180;2023-04-29T00:57:40;15.00;70.40
70456;DHT22;57916;51.996;5.180;2023-04-29T01:00:09;15.00;70.20
70456;DHT22;57916;51.996;5.180;2023-04-29T01:02:36;14.90;69.90
70456;DHT22;57916;51.996;5.180;2023-04-29T01:05:04;14.90;70.20
70456;DHT22;57916;51.996;5.180;2023-04-29T01:10:43;14.90;69.90
70456;DHT22;57916;51.996;5.180;2023-04-29T01:13:28;14.90;70.00
70456;DHT22;57916;51.996;5.180;2023-04-29T01:16:11;14.90;70.00
70456;DHT22;57916;51.996;5.180;2023-04-29T01:18:53;14.90;69.80
70456;DHT22;57916;51.996;5.180;2023-04-29T01:21:26;14.90;69.80
70456;DHT22;57916;51.996;5.180;2023-04-29T01:23:53;14.90;69.80
70456;DHT22;57916;51.996;5.180;2023-04-29T01:26:28;14.90;69.70
70456;DHT22;57916;51.996;5.180;2023-04-29T01:29:27;14.90;69.60
70456;DHT22;57916;51.996;5.180;2023-04-29T01:32:05;14.90;69.70
70456;DHT22;57916;51.996;5.180;2023-04-29T01:35:03;14.80;69.60
70456;DHT22;57916;51.996;5.180;2023-04-29T01:37:40;14.80;69.20
70456;DHT22;57916;51.996;5.180;2023-04-29T01:40:18;14.80;69.20
70456;DHT22;57916;51.996;5.180;2023-04-29T01:43:07;14.80;69.50
70456;DHT22;57916;51.996;5.180;2023-04-29T01:45:41;14.70;69.20
70456;DHT22;57916;51.996;5.180;2023-04-29T01:48:10;14.80;70.20
70456;DHT22;57916;51.996;5.180;2023-04-29T01:50:39;14.80;69.40
70456;DHT22;57916;51.996;5.180;2023-04-29T01:53:10;14.80;69.60
70456;DHT22;57916;51.996;5.180;2023-04-29T01:55:37;14.80;69.60
70456;DHT22;57916;51.996;5.180;2023-04-29T01:58:12;14.80;69.40
70456;DHT22;57916;51.996;5.180;2023-04-29T02:00:50;14.80;69.50
70456;DHT22;57916;51.996;5.180;2023-04-29T02:03:18;14.80;69.50
70456;DHT22;57916;51.996;5.180;2023-04-29T02:05:49;14.80;69.40
70456;DHT22;57916;51.996;5.180;2023-04-29T02:08:17;14.80;69.30
70456;DHT22;57916;51.996;5.180;2023-04-29T02:10:55;14.80;69.20
70456;DHT22;57916;51.996;5.180;2023-04-29T02:13:33;14.80;69.20
70456;DHT22;57916;51.996;5.180;2023-04-29T02:16:12;14.80;69.20
70456;DHT22;57916;51.996;5.180;2023-04-29T02:18:48;14.80;69.10
70456;DHT22;57916;51.996;5.180;2023-04-29T02:21:15;14.80;69.20
70456;DHT22;57916;51.996;5.180;2023-04-29T02:23:42;14.80;69.00
70456;DHT22;57916;51.996;5.180;2023-04-29T02:26:08;14.80;69.00
70456;DHT22;57916;51.996;5.180;2023-04-29T02:28:36;14.80;69.10
70456;DHT22;57916;51.996;5.180;2023-04-29T02:31:03;14.80;69.10
70456;DHT22;57916;51.996;5.180;2023-04-29T02:33:30;14.80;69.10
70456;DHT22;57916;51.996;5.180;2023-04-29T02:35:58;14.80;69.00
70456;DHT22;57916;51.996;5.180;2023-04-29T02:38:25;14.80;68.80
70456;DHT22;57916;51.996;5.180;2023-04-29T02:40:52;14.80;68.70
70456;DHT22;57916;51.996;5.180;2023-04-29T02:43:20;14.80;68.70
70456;DHT22;57916;51.996;5.180;2023-04-29T02:45:47;14.80;68.70
70456;DHT22;57916;51.996;5.180;2023-04-29T02:48:14;14.80;68.90
70456;DHT22;57916;51.996;5.180;2023-04-29T02:50:41;14.80;68.80
70456;DHT22;57916;51.996;5.180;2023-04-29T02:53:08;14.80;68.80
70456;DHT22;57916;51.996;5.180;2023-04-29T02:55:35;14.80;68.50
70456;DHT22;57916;51.996;5.180;2023-04-29T02:58:06;14.70;68.50
70456;DHT22;57916;51.996;5.180;2023-04-29T03:00:33;14.70;68.50
70456;DHT22;57916;51.996;5.180;2023-04-29T03:03:00;14.70;68.40
70456;DHT22;57916;51.996;5.180;2023-04-29T03:05:27;14.60;68.60
70456;DHT22;57916;51.996;5.180;2023-04-29T03:07:54;14.60;68.50
70456;DHT22;57916;51.996;5.180;2023-04-29T03:10:21;14.60;68.60
70456;DHT22;57916;51.996;5.180;2023-04-29T03:12:48;14.60;68.60
70456;DHT22;57916;51.996;5.180;2023-04-29T03:15:15;14.70;68.60
70456;DHT22;57916;51.996;5.180;2023-04-29T03:17:43;14.70;68.80
70456;DHT22;57916;51.996;5.180;2023-04-29T03:20:12;14.70;68.70
70456;DHT22;57916;51.996;5.180;2023-04-29T03:22:39;14.70;68.70
70456;DHT22;57916;51.996;5.180;2023-04-29T03:25:07;14.70;68.80
70456;DHT22;57916;51.996;5.180;2023-04-29T03:27:37;14.80;68.80
70456;DHT22;57916;51.996;5.180;2023-04-29T03:30:05;14.80;68.70
70456;DHT22;57916;51.996;5.180;2023-04-29T03:32:34;14.80;68.80
70456;DHT22;57916;51.996;5.180;2023-04-29T03:35:02;14.80;68.80
70456;DHT22;57916;51.996;5.180;2023-04-29T03:37:35;14.80;68.70
70456;DHT22;57916;51.996;5.180;2023-04-29T03:40:23;14.80;68.60
70456;DHT22;57916;51.996;5.180;2023-04-29T03:42:50;14.80;68.80
70456;DHT22;57916;51.996;5.180;2023-04-29T03:45:19;14.80;68.90
70456;DHT22;57916;51.996;5.180;2023-04-29T03:47:46;14.80;69.00
70456;DHT22;57916;51.996;5.180;2023-04-29T03:50:13;14.80;69.10
70456;DHT22;57916;51.996;5.180;2023-04-29T03:52:40;14.80;68.60
70456;DHT22;57916;51.996;5.180;2023-04-29T03:55:13;14.80;68.60
70456;DHT22;57916;51.996;5.180;2023-04-29T03:57:41;14.70;68.80
70456;DHT22;57916;51.996;5.180;2023-04-29T04:00:10;14.70;69.00
70456;DHT22;57916;51.996;5.180;2023-04-29T04:02:44;14.70;69.10
70456;DHT22;57916;51.996;5.180;2023-04-29T04:05:13;14.70;68.80
70456;DHT22;57916;51.996;5.180;2023-04-29T04:07:46;14.70;69.00
70456;DHT22;57916;51.996;5.180;2023-04-29T04:10:39;14.70;69.10
70456;DHT22;57916;51.996;5.180;2023-04-29T04:13:20;14.70;69.00
70456;DHT22;57916;51.996;5.180;2023-04-29T04:15:50;14.70;69.10
70456;DHT22;57916;51.996;5.180;2023-04-29T04:18:18;14.70;69.20
70456;DHT22;57916;51.996;5.180;2023-04-29T04:20:45;14.70;69.20
70456;DHT22;57916;51.996;5.180;2023-04-29T04:23:13;14.70;69.10
70456;DHT22;57916;51.996;5.180;2023-04-29T04:25:48;14.70;68.80
70456;DHT22;57916;51.996;5.180;2023-04-29T04:28:51;14.70;68.70
70456;DHT22;57916;51.996;5.180;2023-04-29T04:31:26;14.70;69.10
70456;DHT22;57916;51.996;5.180;2023-04-29T04:33:53;14.70;68.90
70456;DHT22;57916;51.996;5.180;2023-04-29T04:36:20;14.80;68.90
70456;DHT22;57916;51.996;5.180;2023-04-29T04:38:47;14.70;68.70
70456;DHT22;57916;51.996;5.180;2023-04-29T04:41:14;14.70;68.90
70456;DHT22;57916;51.996;5.180;2023-04-29T04:43:43;14.70;69.00
70456;DHT22;57916;51.996;5.180;2023-04-29T04:46:23;14.70;69.00
70456;DHT22;57916;51.996;5.180;2023-04-29T04:48:57;14.70;68.80
70456;DHT22;57916;51.996;5.180;2023-04-29T04:51:26;14.70;68.60
70456;DHT22;57916;51.996;5.180;2023-04-29T04:53:54;14.60;68.80
70456;DHT22;57916;51.996;5.180;2023-04-29T04:56:23;14.60;69.20
70456;DHT22;57916;51.996;5.180;2023-04-29T04:58:50;14.60;68.60
70456;DHT22;57916;51.996;5.180;2023-04-29T05:01:17;14.60;68.60
70456;DHT22;57916;51.996;5.180;2023-04-29T05:03:44;14.60;69.10
70456;DHT22;57916;51.996;5.180;2023-04-29T05:06:11;14.60;68.70
70456;DHT22;57916;51.996;5.180;2023-04-29T05:08:41;14.70;69.00
70456;DHT22;57916;51.996;5.180;2023-04-29T05:11:19;14.70;68.90
70456;DHT22;57916;51.996;5.180;2023-04-29T05:13:59;14.70;69.00
70456;DHT22;57916;51.996;5.180;2023-04-29T05:16:26;14.70;68.60
70456;DHT22;57916;51.996;5.180;2023-04-29T05:18:53;14.70;68.70
70456;DHT22;57916;51.996;5.180;2023-04-29T05:21:24;14.70;69.00
70456;DHT22;57916;51.996;5.180;2023-04-29T05:23:51;14.80;68.20
70456;DHT22;57916;51.996;5.180;2023-04-29T05:26:18;14.80;68.30
70456;DHT22;57916;51.996;5.180;2023-04-29T05:28:45;14.80;68.00
70456;DHT22;57916;51.996;5.180;2023-04-29T05:31:13;14.80;69.20
70456;DHT22;57916;51.996;5.180;2023-04-29T05:33:40;14.80;68.60
70456;DHT22;57916;51.996;5.180;2023-04-29T05:36:07;14.80;68.70
70456;DHT22;57916;51.996;5.180;2023-04-29T05:38:35;14.90;68.60
70456;DHT22;57916;51.996;5.180;2023-04-29T05:41:04;15.00;68.50
70456;DHT22;57916;51.996;5.180;2023-04-29T05:44:02;15.00;68.60
70456;DHT22;57916;51.996;5.180;2023-04-29T05:46:30;15.10;69.50
70456;DHT22;57916;51.996;5.180;2023-04-29T05:48:57;15.10;68.30
70456;DHT22;57916;51.996;5.180;2023-04-29T05:51:24;15.10;68.20
70456;DHT22;57916;51.996;5.180;2023-04-29T05:53:51;15.10;68.00
70456;DHT22;57916;51.996;5.180;2023-04-29T05:56:18;15.10;68.00
70456;DHT22;57916;51.996;5.180;2023-04-29T05:58:45;15.10;68.20
70456;DHT22;57916;51.996;5.180;2023-04-29T06:01:12;15.20;68.10
70456;DHT22;57916;51.996;5.180;2023-04-29T06:03:39;15.20;68.10
70456;DHT22;57916;51.996;5.180;2023-04-29T06:06:24;15.20;68.10
70456;DHT22;57916;51.996;5.180;2023-04-29T06:09:10;15.20;68.10
70456;DHT22;57916;51.996;5.180;2023-04-29T06:11:53;15.20;68.30
70456;DHT22;57916;51.996;5.180;2023-04-29T06:14:20;15.20;68.60
70456;DHT22;57916;51.996;5.180;2023-04-29T06:16:48;15.20;68.40
70456;DHT22;57916;51.996;5.180;2023-04-29T06:19:15;15.10;68.40
70456;DHT22;57916;51.996;5.180;2023-04-29T06:21:42;15.10;68.40
70456;DHT22;57916;51.996;5.180;2023-04-29T06:24:09;15.10;68.60
70456;DHT22;57916;51.996;5.180;2023-04-29T06:26:36;15.10;68.50
70456;DHT22;57916;51.996;5.180;2023-04-29T06:29:03;15.10;68.90
70456;DHT22;57916;51.996;5.180;2023-04-29T06:31:30;15.10;68.90
70456;DHT22;57916;51.996;5.180;2023-04-29T06:34:01;15.10;69.40
70456;DHT22;57916;51.996;5.180;2023-04-29T06:36:29;15.10;69.70
70456;DHT22;57916;51.996;5.180;2023-04-29T06:39:18;15.20;69.90
70456;DHT22;57916;51.996;5.180;2023-04-29T06:42:00;15.30;69.10
70456;DHT22;57916;51.996;5.180;2023-04-29T06:44:46;15.40;69.20
70456;DHT22;57916;51.996;5.180;2023-04-29T06:47:52;15.60;69.80
70456;DHT22;57916;51.996;5.180;2023-04-29T06:50:51;15.80;68.40
70456;DHT22;57916;51.996;5.180;2023-04-29T06:53:19;15.90;67.50
70456;DHT22;57916;51.996;5.180;2023-04-29T06:55:46;16.00;67.00
70456;DHT22;57916;51.996;5.180;2023-04-29T06:58:14;16.10;66.80
70456;DHT22;57916;51.996;5.180;2023-04-29T07:00:46;16.10;66.30
70456;DHT22;57916;51.996;5.180;2023-04-29T07:03:14;16.10;65.80
70456;DHT22;57916;51.996;5.180;2023-04-29T07:05:41;16.00;65.30
70456;DHT22;57916;51.996;5.180;2023-04-29T07:08:11;16.00;66.10
70456;DHT22;57916;51.996;5.180;2023-04-29T07:10:39;15.90;66.10
70456;DHT22;57916;51.996;5.180;2023-04-29T07:13:07;15.90;66.10
70456;DHT22;57916;51.996;5.180;2023-04-29T07:15:35;15.90;66.60
70456;DHT22;57916;51.996;5.180;2023-04-29T07:18:05;15.90;66.10
70456;DHT22;57916;51.996;5.180;2023-04-29T07:20:35;15.90;66.10
70456;DHT22;57916;51.996;5.180;2023-04-29T07:23:03;15.80;65.50
70456;DHT22;57916;51.996;5.180;2023-04-29T07:25:30;15.80;65.80
70456;DHT22;57916;51.996;5.180;2023-04-29T07:27:57;15.80;67.00
70456;DHT22;57916;51.996;5.180;2023-04-29T07:30:24;15.80;67.10
70456;DHT22;57916;51.996;5.180;2023-04-29T07:32:51;15.90;66.80
70456;DHT22;57916;51.996;5.180;2023-04-29T07:35:18;16.10;68.10
70456;DHT22;57916;51.996;5.180;2023-04-29T07:37:46;16.40;67.60
70456;DHT22;57916;51.996;5.180;2023-04-29T07:40:13;16.70;65.70
70456;DHT22;57916;51.996;5.180;2023-04-29T07:42:41;16.90;64.50
70456;DHT22;57916;51.996;5.180;2023-04-29T07:45:08;17.10;64.00
70456;DHT22;57916;51.996;5.180;2023-04-29T07:47:35;17.30;64.10
70456;DHT22;57916;51.996;5.180;2023-04-29T07:50:02;17.40;63.50
70456;DHT22;57916;51.996;5.180;2023-04-29T07:52:30;17.60;62.80
70456;DHT22;57916;51.996;5.180;2023-04-29T07:54:57;17.70;62.20
70456;DHT22;57916;51.996;5.180;2023-04-29T07:57:24;17.90;62.70
70456;DHT22;57916;51.996;5.180;2023-04-29T07:59:54;18.10;61.90
70456;DHT22;57916;51.996;5.180;2023-04-29T08:02:21;18.30;63.50
70456;DHT22;57916;51.996;5.180;2023-04-29T08:04:48;18.70;61.60
70456;DHT22;57916;51.996;5.180;2023-04-29T08:07:17;19.10;59.40
70456;DHT22;57916;51.996;5.180;2023-04-29T08:09:44;19.50;58.80
70456;DHT22;57916;51.996;5.180;2023-04-29T08:12:11;19.90;56.50
70456;DHT22;57916;51.996;5.180;2023-04-29T08:14:39;20.20;57.00
70456;DHT22;57916;51.996;5.180;2023-04-29T08:17:06;20.50;55.80
70456;DHT22;57916;51.996;5.180;2023-04-29T08:19:34;20.70;54.10
70456;DHT22;57916;51.996;5.180;2023-04-29T08:22:01;20.90;52.70
70456;DHT22;57916;51.996;5.180;2023-04-29T08:24:29;20.90;52.20
70456;DHT22;57916;51.996;5.180;2023-04-29T08:26:59;20.90;52.20
70456;DHT22;57916;51.996;5.180;2023-04-29T08:29:26;21.00;51.10
70456;DHT22;57916;51.996;5.180;2023-04-29T08:31:53;21.20;52.00
70456;DHT22;57916;51.996;5.180;2023-04-29T08:34:20;21.30;49.70
70456;DHT22;57916;51.996;5.180;2023-04-29T08:36:47;21.30;48.80
70456;DHT22;57916;51.996;5.180;2023-04-29T08:39:14;21.30;48.80
70456;DHT22;57916;51.996;5.180;2023-04-29T08:41:40;21.40;49.30
70456;DHT22;57916;51.996;5.180;2023-04-29T08:44:11;21.50;51.20
70456;DHT22;57916;51.996;5.180;2023-04-29T08:46:38;21.70;47.60
70456;DHT22;57916;51.996;5.180;2023-04-29T08:49:06;21.90;49.30
70456;DHT22;57916;51.996;5.180;2023-04-29T08:51:33;22.20;47.50
70456;DHT22;57916;51.996;5.180;2023-04-29T08:54:00;22.40;48.40
70456;DHT22;57916;51.996;5.180;2023-04-29T08:56:29;22.60;48.10
70456;DHT22;57916;51.996;5.180;2023-04-29T08:58:57;22.90;45.90
70456;DHT22;57916;51.996;5.180;2023-04-29T09:01:27;23.00;45.70
70456;DHT22;57916;51.996;5.180;2023-04-29T09:06:42;23.40;43.90
70456;DHT22;57916;51.996;5.180;2023-04-29T09:09:09;23.30;42.50
70456;DHT22;57916;51.996;5.180;2023-04-29T09:11:37;23.10;44.60
70456;DHT22;57916;51.996;5.180;2023-04-29T09:14:04;23.10;44.80
70456;DHT22;57916;51.996;5.180;2023-04-29T09:16:31;23.20;45.20
70456;DHT22;57916;51.996;5.180;2023-04-29T09:18:58;23.20;43.80
70456;DHT22;57916;51.996;5.180;2023-04-29T09:21:27;23.00;42.00
70456;DHT22;57916;51.996;5.180;2023-04-29T09:23:56;22.80;42.50
70456;DHT22;57916;51.996;5.180;2023-04-29T09:26:24;22.40;42.80
70456;DHT22;57916;51.996;5.180;2023-04-29T09:29:13;22.10;44.70
70456;DHT22;57916;51.996;5.180;2023-04-29T09:31:42;22.10;47.50
70456;DHT22;57916;51.996;5.180;2023-04-29T09:34:09;22.20;45.10
70456;DHT22;57916;51.996;5.180;2023-04-29T09:36:46;22.20;43.20
70456;DHT22;57916;51.996;5.180;2023-04-29T09:44:24;21.50;44.00
70456;DHT22;57916;51.996;5.180;2023-04-29T09:47:06;21.40;43.40
70456;DHT22;57916;51.996;5.180;2023-04-29T09:49:38;21.00;46.50
70456;DHT22;57916;51.996;5.180;2023-04-29T09:52:17;20.90;48.00
70456;DHT22;57916;51.996;5.180;2023-04-29T09:54:46;20.80;50.00
70456;DHT22;57916;51.996;5.180;2023-04-29T09:57:13;21.00;47.70
70456;DHT22;57916;51.996;5.180;2023-04-29T09:59:41;21.00;47.70
70456;DHT22;57916;51.996;5.180;2023-04-29T10:02:14;21.00;49.20
70456;DHT22;57916;51.996;5.180;2023-04-29T10:04:44;21.10;47.30
70456;DHT22;57916;51.996;5.180;2023-04-29T10:07:15;21.00;47.10
70456;DHT22;57916;51.996;5.180;2023-04-29T10:09:44;20.90;46.70
70456;DHT22;57916;51.996;5.180;2023-04-29T10:12:17;20.80;46.90
70456;DHT22;57916;51.996;5.180;2023-04-29T10:17:35;20.80;49.20
70456;DHT22;57916;51.996;5.180;2023-04-29T10:20:04;20.90;48.70
70456;DHT22;57916;51.996;5.180;2023-04-29T10:22:47;20.90;47.70
70456;DHT22;57916;51.996;5.180;2023-04-29T10:25:16;21.20;47.20
70456;DHT22;57916;51.996;5.180;2023-04-29T10:27:44;21.60;48.40
70456;DHT22;57916;51.996;5.180;2023-04-29T10:30:17;22.10;48.50
70456;DHT22;57916;51.996;5.180;2023-04-29T10:32:45;22.60;47.20
70456;DHT22;57916;51.996;5.180;2023-04-29T10:35:18;22.90;44.50
70456;DHT22;57916;51.996;5.180;2023-04-29T10:37:46;23.10;43.40
70456;DHT22;57916;51.996;5.180;2023-04-29T10:42:45;22.90;40.80
70456;DHT22;57916;51.996;5.180;2023-04-29T10:50:29;22.60;43.10
70456;DHT22;57916;51.996;5.180;2023-04-29T10:52:56;22.50;41.10
70456;DHT22;57916;51.996;5.180;2023-04-29T10:55:24;22.30;42.30
70456;DHT22;57916;51.996;5.180;2023-04-29T10:57:55;22.30;42.50
70456;DHT22;57916;51.996;5.180;2023-04-29T11:00:27;22.20;41.20
70456;DHT22;57916;51.996;5.180;2023-04-29T11:02:58;22.20;41.40
70456;DHT22;57916;51.996;5.180;2023-04-29T11:05:29;22.20;43.40
70456;DHT22;57916;51.996;5.180;2023-04-29T11:08:19;22.30;43.80
70456;DHT22;57916;51.996;5.180;2023-04-29T11:10:53;22.50;41.80
70456;DHT22;57916;51.996;5.180;2023-04-29T11:13:30;22.60;43.70
70456;DHT22;57916;51.996;5.180;2023-04-29T11:16:05;22.90;44.50
70456;DHT22;57916;51.996;5.180;2023-04-29T11:18:33;23.20;40.50
70456;DHT22;57916;51.996;5.180;2023-04-29T11:23:38;23.60;39.10
70456;DHT22;57916;51.996;5.180;2023-04-29T11:26:10;23.70;39.20
70456;DHT22;57916;51.996;5.180;2023-04-29T11:28:40;23.90;41.00
70456;DHT22;57916;51.996;5.180;2023-04-29T11:31:07;24.00;39.30
70456;DHT22;57916;51.996;5.180;2023-04-29T11:33:34;24.00;37.10
70456;DHT22;57916;51.996;5.180;2023-04-29T11:36:02;24.00;37.10
70456;DHT22;57916;51.996;5.180;2023-04-29T11:38:30;24.10;37.10
70456;DHT22;57916;51.996;5.180;2023-04-29T11:40:58;24.10;39.10
70456;DHT22;57916;51.996;5.180;2023-04-29T11:43:25;24.20;36.40
70456;DHT22;57916;51.996;5.180;2023-04-29T11:45:52;24.20;37.80
70456;DHT22;57916;51.996;5.180;2023-04-29T11:48:24;24.20;38.90
70456;DHT22;57916;51.996;5.180;2023-04-29T11:50:58;24.30;38.70
70456;DHT22;57916;51.996;5.180;2023-04-29T11:53:25;24.70;40.50
70456;DHT22;57916;51.996;5.180;2023-04-29T11:55:54;25.00;37.90
70456;DHT22;57916;51.996;5.180;2023-04-29T11:58:24;25.20;34.50
70456;DHT22;57916;51.996;5.180;2023-04-29T12:00:51;25.20;33.20
70456;DHT22;57916;51.996;5.180;2023-04-29T12:03:19;25.20;34.50
70456;DHT22;57916;51.996;5.180;2023-04-29T12:05:50;25.20;34.50
70456;DHT22;57916;51.996;5.180;2023-04-29T12:10:48;25.50;35.00
70456;DHT22;57916;51.996;5.180;2023-04-29T12:13:19;25.50;35.40
70456;DHT22;57916;51.996;5.180;2023-04-29T12:15:47;25.40;33.30
70456;DHT22;57916;51.996;5.180;2023-04-29T12:18:16;25.20;33.40
70456;DHT22;57916;51.996;5.180;2023-04-29T12:20:44;25.00;33.20
70456;DHT22;57916;51.996;5.180;2023-04-29T12:25:39;24.80;34.50
70456;DHT22;57916;51.996;5.180;2023-04-29T12:28:13;24.90;36.90
70456;DHT22;57916;51.996;5.180;2023-04-29T12:30:40;25.00;36.10
70456;DHT22;57916;51.996;5.180;2023-04-29T12:33:09;25.20;34.70
70456;DHT22;57916;51.996;5.180;2023-04-29T12:35:36;25.20;33.70
70456;DHT22;57916;51.996;5.180;2023-04-29T12:38:03;25.20;34.90
70456;DHT22;57916;51.996;5.180;2023-04-29T12:40:31;25.10;32.60
70456;DHT22;57916;51.996;5.180;2023-04-29T12:43:06;25.00;35.10
70456;DHT22;57916;51.996;5.180;2023-04-29T12:45:34;24.80;34.60
70456;DHT22;57916;51.996;5.180;2023-04-29T12:48:01;24.70;34.30
70456;DHT22;57916;51.996;5.180;2023-04-29T12:53:00;24.40;33.00
70456;DHT22;57916;51.996;5.180;2023-04-29T12:55:27;24.10;33.90
70456;DHT22;57916;51.996;5.180;2023-04-29T12:57:54;24.00;35.90
70456;DHT22;57916;51.996;5.180;2023-04-29T13:00:21;23.90;35.80
70456;DHT22;57916;51.996;5.180;2023-04-29T13:02:48;23.70;35.60
70456;DHT22;57916;51.996;5.180;2023-04-29T13:05:15;23.60;35.20
70456;DHT22;57916;51.996;5.180;2023-04-29T13:07:42;23.50;34.70
70456;DHT22;57916;51.996;5.180;2023-04-29T13:10:09;23.30;35.50
70456;DHT22;57916;51.996;5.180;2023-04-29T13:12:38;23.30;36.40
70456;DHT22;57916;51.996;5.180;2023-04-29T13:15:06;23.30;36.30
70456;DHT22;57916;51.996;5.180;2023-04-29T13:17:35;23.20;35.10
70456;DHT22;57916;51.996;5.180;2023-04-29T13:20:03;23.10;35.80
70456;DHT22;57916;51.996;5.180;2023-04-29T13:22:31;23.00;35.70
70456;DHT22;57916;51.996;5.180;2023-04-29T13:24:58;22.90;39.40
70456;DHT22;57916;51.996;5.180;2023-04-29T13:27:25;22.90;39.80
70456;DHT22;57916;51.996;5.180;2023-04-29T13:29:52;22.90;38.30
70456;DHT22;57916;51.996;5.180;2023-04-29T13:32:19;22.80;37.00
70456;DHT22;57916;51.996;5.180;2023-04-29T13:34:50;22.60;36.90
70456;DHT22;57916;51.996;5.180;2023-04-29T13:37:17;22.50;39.00
70456;DHT22;57916;51.996;5.180;2023-04-29T13:39:45;22.30;39.80
70456;DHT22;57916;51.996;5.180;2023-04-29T13:42:13;22.30;39.60
70456;DHT22;57916;51.996;5.180;2023-04-29T13:44:41;22.40;40.60
70456;DHT22;57916;51.996;5.180;2023-04-29T13:47:18;22.40;38.60
70456;DHT22;57916;51.996;5.180;2023-04-29T13:49:51;22.50;39.60
70456;DHT22;57916;51.996;5.180;2023-04-29T13:52:21;22.50;40.80
70456;DHT22;57916;51.996;5.180;2023-04-29T13:54:51;22.50;39.10
70456;DHT22;57916;51.996;5.180;2023-04-29T13:57:21;22.40;39.00
70456;DHT22;57916;51.996;5.180;2023-04-29T13:59:51;22.30;38.30
70456;DHT22;57916;51.996;5.180;2023-04-29T14:02:21;22.30;38.70
70456;DHT22;57916;51.996;5.180;2023-04-29T14:04:52;22.20;39.80
70456;DHT22;57916;51.996;5.180;2023-04-29T14:07:20;22.10;38.50
70456;DHT22;57916;51.996;5.180;2023-04-29T14:09:47;22.10;39.70
70456;DHT22;57916;51.996;5.180;2023-04-29T14:12:14;22.10;39.80
70456;DHT22;57916;51.996;5.180;2023-04-29T14:14:41;22.10;39.30
70456;DHT22;57916;51.996;5.180;2023-04-29T14:17:08;22.10;38.70
70456;DHT22;57916;51.996;5.180;2023-04-29T14:19:35;22.10;38.30
70456;DHT22;57916;51.996;5.180;2023-04-29T14:22:02;22.00;38.50
70456;DHT22;57916;51.996;5.180;2023-04-29T14:24:29;22.00;38.70
70456;DHT22;57916;51.996;5.180;2023-04-29T14:26:56;22.00;38.00
70456;DHT22;57916;51.996;5.180;2023-04-29T14:29:24;22.00;39.30
70456;DHT22;57916;51.996;5.180;2023-04-29T14:31:51;21.90;39.90
70456;DHT22;57916;51.996;5.180;2023-04-29T14:34:18;21.90;40.10
70456;DHT22;57916;51.996;5.180;2023-04-29T14:36:45;21.90;38.60
70456;DHT22;57916;51.996;5.180;2023-04-29T14:39:13;21.90;38.60
70456;DHT22;57916;51.996;5.180;2023-04-29T14:41:39;21.90;38.80
70456;DHT22;57916;51.996;5.180;2023-04-29T14:44:06;21.80;38.70
70456;DHT22;57916;51.996;5.180;2023-04-29T14:46:33;21.80;37.70
70456;DHT22;57916;51.996;5.180;2023-04-29T14:49:00;21.70;38.30
70456;DHT22;57916;51.996;5.180;2023-04-29T14:51:27;21.70;37.40
70456;DHT22;57916;51.996;5.180;2023-04-29T14:53:55;21.70;38.40
70456;DHT22;57916;51.996;5.180;2023-04-29T14:56:22;21.60;37.60
70456;DHT22;57916;51.996;5.180;2023-04-29T14:58:49;21.60;38.00
70456;DHT22;57916;51.996;5.180;2023-04-29T15:01:16;21.60;38.70
70456;DHT22;57916;51.996;5.180;2023-04-29T15:03:43;21.50;37.60
70456;DHT22;57916;51.996;5.180;2023-04-29T15:06:11;21.50;38.00
70456;DHT22;57916;51.996;5.180;2023-04-29T15:08:38;21.50;38.90
70456;DHT22;57916;51.996;5.180;2023-04-29T15:11:05;21.50;37.20
70456;DHT22;57916;51.996;5.180;2023-04-29T15:13:32;21.50;37.80
70456;DHT22;57916;51.996;5.180;2023-04-29T15:15:59;21.40;37.70
70456;DHT22;57916;51.996;5.180;2023-04-29T15:18:26;21.40;36.70
70456;DHT22;57916;51.996;5.180;2023-04-29T15:20:53;21.40;37.20
70456;DHT22;57916;51.996;5.180;2023-04-29T15:23:20;21.40;36.90
70456;DHT22;57916;51.996;5.180;2023-04-29T15:25:47;21.40;36.30
70456;DHT22;57916;51.996;5.180;2023-04-29T15:28:14;21.30;37.80
70456;DHT22;57916;51.996;5.180;2023-04-29T15:30:41;21.30;37.10
70456;DHT22;57916;51.996;5.180;2023-04-29T15:33:08;21.30;37.60
70456;DHT22;57916;51.996;5.180;2023-04-29T15:35:35;21.30;38.30
70456;DHT22;57916;51.996;5.180;2023-04-29T15:38:02;21.30;37.60
70456;DHT22;57916;51.996;5.180;2023-04-29T15:40:29;21.30;37.90
70456;DHT22;57916;51.996;5.180;2023-04-29T15:42:56;21.20;38.60
70456;DHT22;57916;51.996;5.180;2023-04-29T15:45:23;21.30;38.80
70456;DHT22;57916;51.996;5.180;2023-04-29T15:47:50;21.20;37.60
70456;DHT22;57916;51.996;5.180;2023-04-29T15:50:17;21.20;39.20
70456;DHT22;57916;51.996;5.180;2023-04-29T15:52:44;21.20;38.00
70456;DHT22;57916;51.996;5.180;2023-04-29T15:55:11;21.20;37.50
70456;DHT22;57916;51.996;5.180;2023-04-29T15:57:38;21.20;37.00
70456;DHT22;57916;51.996;5.180;2023-04-29T16:00:07;21.20;37.30
70456;DHT22;57916;51.996;5.180;2023-04-29T16:02:34;21.20;36.90
70456;DHT22;57916;51.996;5.180;2023-04-29T16:05:01;21.10;37.60
70456;DHT22;57916;51.996;5.180;2023-04-29T16:07:29;21.10;37.60
70456;DHT22;57916;51.996;5.180;2023-04-29T16:09:56;21.10;37.40
70456;DHT22;57916;51.996;5.180;2023-04-29T16:12:23;21.10;37.40
70456;DHT22;57916;51.996;5.180;2023-04-29T16:14:50;21.10;36.80
70456;DHT22;57916;51.996;5.180;2023-04-29T16:17:17;21.00;36.60